Terminal Aerodrome Forecast
Issued by NWS

Current Version | Previous Version | Text Only | Print | Product List | Glossary Off
Versions: 1 2 3 4 5 6 7 8 9 10 11 12 13 14 15 16 17 18

000
FTUS41 KILN 180500
TAFLCK
TAF
KLCK 180531Z 1806/1906 VRB03KT P6SM FEW050
     FM181400 03008KT P6SM SCT040
     FM182300 05003KT P6SM FEW050=

USA.gov is the U.S. government's official web portal to all federal, state and local government web resources and services.